sensor_id;sensor_type;location;lat;lon;timestamp;P1;durP1;ratioP1;P2;durP2;ratioP2
61527;SDS011;47395;42.032;-8.634;2022-12-10T00:01:51;327.52;;;305.48;;
61527;SDS011;47395;42.032;-8.634;2022-12-10T00:03:56;318.63;;;296.05;;
61527;SDS011;47395;42.032;-8.634;2022-12-10T00:06:01;332.98;;;309.60;;
61527;SDS011;47395;42.032;-8.634;2022-12-10T00:08:06;314.42;;;292.48;;
61527;SDS011;47395;42.032;-8.634;2022-12-10T00:10:07;307.20;;;285.65;;
61527;SDS011;47395;42.032;-8.634;2022-12-10T00:12:09;326.55;;;303.98;;
61527;SDS011;47395;42.032;-8.634;2022-12-10T00:14:12;336.40;;;313.15;;
61527;SDS011;47395;42.032;-8.634;2022-12-10T00:16:14;312.77;;;291.42;;
61527;SDS011;47395;42.032;-8.634;2022-12-10T00:18:16;355.42;;;330.13;;
61527;SDS011;47395;42.032;-8.634;2022-12-10T00:20:17;324.67;;;302.02;;
61527;SDS011;47395;42.032;-8.634;2022-12-10T00:22:18;326.00;;;303.73;;
61527;SDS011;47395;42.032;-8.634;2022-12-10T00:24:19;330.10;;;307.45;;
61527;SDS011;47395;42.032;-8.634;2022-12-10T00:26:24;317.20;;;295.33;;
61527;SDS011;47395;42.032;-8.634;2022-12-10T00:28:29;305.48;;;284.25;;
61527;SDS011;47395;42.032;-8.634;2022-12-10T00:30:30;307.67;;;286.90;;
61527;SDS011;47395;42.032;-8.634;2022-12-10T00:32:31;303.00;;;282.25;;
61527;SDS011;47395;42.032;-8.634;2022-12-10T00:34:32;313.60;;;292.33;;
61527;SDS011;47395;42.032;-8.634;2022-12-10T00:36:37;313.90;;;292.52;;
61527;SDS011;47395;42.032;-8.634;2022-12-10T00:38:46;325.40;;;302.85;;
61527;SDS011;47395;42.032;-8.634;2022-12-10T00:40:47;297.83;;;277.42;;
61527;SDS011;47395;42.032;-8.634;2022-12-10T00:42:48;343.30;;;319.55;;
61527;SDS011;47395;42.032;-8.634;2022-12-10T00:44:49;291.98;;;272.15;;
61527;SDS011;47395;42.032;-8.634;2022-12-10T00:46:50;313.38;;;292.15;;
61527;SDS011;47395;42.032;-8.634;2022-12-10T00:48:51;354.98;;;330.48;;
61527;SDS011;47395;42.032;-8.634;2022-12-10T00:50:59;327.48;;;305.38;;
61527;SDS011;47395;42.032;-8.634;2022-12-10T00:53:02;325.90;;;303.88;;
61527;SDS011;47395;42.032;-8.634;2022-12-10T00:55:03;333.20;;;310.10;;
61527;SDS011;47395;42.032;-8.634;2022-12-10T00:57:04;335.75;;;313.25;;
61527;SDS011;47395;42.032;-8.634;2022-12-10T00:59:05;298.67;;;277.98;;
61527;SDS011;47395;42.032;-8.634;2022-12-10T01:01:10;318.13;;;296.75;;
61527;SDS011;47395;42.032;-8.634;2022-12-10T01:03:44;299.75;;;279.52;;
61527;SDS011;47395;42.032;-8.634;2022-12-10T01:05:45;311.50;;;290.05;;
61527;SDS011;47395;42.032;-8.634;2022-12-10T01:07:47;329.90;;;306.83;;
61527;SDS011;47395;42.032;-8.634;2022-12-10T01:09:52;322.17;;;300.48;;
61527;SDS011;47395;42.032;-8.634;2022-12-10T01:11:56;335.23;;;312.67;;
61527;SDS011;47395;42.032;-8.634;2022-12-10T01:13:58;320.85;;;299.50;;
61527;SDS011;47395;42.032;-8.634;2022-12-10T01:16:00;328.13;;;305.80;;
61527;SDS011;47395;42.032;-8.634;2022-12-10T01:18:03;296.77;;;277.20;;
61527;SDS011;47395;42.032;-8.634;2022-12-10T01:20:04;290.75;;;271.08;;
61527;SDS011;47395;42.032;-8.634;2022-12-10T01:22:06;296.83;;;276.63;;
61527;SDS011;47395;42.032;-8.634;2022-12-10T01:24:07;296.05;;;276.27;;
61527;SDS011;47395;42.032;-8.634;2022-12-10T01:26:10;316.08;;;294.27;;
61527;SDS011;47395;42.032;-8.634;2022-12-10T01:28:12;309.83;;;289.02;;
61527;SDS011;47395;42.032;-8.634;2022-12-10T01:30:13;310.88;;;289.70;;
61527;SDS011;47395;42.032;-8.634;2022-12-10T01:32:14;310.50;;;288.92;;
61527;SDS011;47395;42.032;-8.634;2022-12-10T01:34:15;328.55;;;306.17;;
61527;SDS011;47395;42.032;-8.634;2022-12-10T01:36:17;313.48;;;292.33;;
61527;SDS011;47395;42.032;-8.634;2022-12-10T01:38:23;294.48;;;274.88;;
61527;SDS011;47395;42.032;-8.634;2022-12-10T01:40:23;282.95;;;263.88;;
61527;SDS011;47395;42.032;-8.634;2022-12-10T01:42:25;301.88;;;281.42;;
61527;SDS011;47395;42.032;-8.634;2022-12-10T01:48:49;257.90;;;240.60;;
61527;SDS011;47395;42.032;-8.634;2022-12-10T01:50:51;256.48;;;239.57;;
61527;SDS011;47395;42.032;-8.634;2022-12-10T01:52:52;257.42;;;240.43;;
61527;SDS011;47395;42.032;-8.634;2022-12-10T01:54:53;275.95;;;257.92;;
61527;SDS011;47395;42.032;-8.634;2022-12-10T01:56:59;254.68;;;237.82;;
61527;SDS011;47395;42.032;-8.634;2022-12-10T01:59:02;289.52;;;270.00;;
61527;SDS011;47395;42.032;-8.634;2022-12-10T02:03:17;301.40;;;281.63;;
61527;SDS011;47395;42.032;-8.634;2022-12-10T02:05:41;247.30;;;231.15;;
61527;SDS011;47395;42.032;-8.634;2022-12-10T02:08:05;282.80;;;263.67;;
61527;SDS011;47395;42.032;-8.634;2022-12-10T02:10:43;271.27;;;253.73;;
61527;SDS011;47395;42.032;-8.634;2022-12-10T02:13:22;267.95;;;250.40;;
61527;SDS011;47395;42.032;-8.634;2022-12-10T02:15:31;273.88;;;255.43;;
61527;SDS011;47395;42.032;-8.634;2022-12-10T02:17:39;252.27;;;235.85;;
61527;SDS011;47395;42.032;-8.634;2022-12-10T02:20:05;260.42;;;243.40;;
61527;SDS011;47395;42.032;-8.634;2022-12-10T02:22:14;271.42;;;253.55;;
61527;SDS011;47395;42.032;-8.634;2022-12-10T02:24:19;268.48;;;250.77;;
61527;SDS011;47395;42.032;-8.634;2022-12-10T02:29:26;241.85;;;226.07;;
61527;SDS011;47395;42.032;-8.634;2022-12-10T02:31:29;249.75;;;233.40;;
61527;SDS011;47395;42.032;-8.634;2022-12-10T02:33:32;282.33;;;263.17;;
61527;SDS011;47395;42.032;-8.634;2022-12-10T02:35:35;304.65;;;284.38;;
61527;SDS011;47395;42.032;-8.634;2022-12-10T02:37:47;255.02;;;237.88;;
61527;SDS011;47395;42.032;-8.634;2022-12-10T02:39:54;299.02;;;278.98;;
61527;SDS011;47395;42.032;-8.634;2022-12-10T02:42:01;301.25;;;281.70;;
61527;SDS011;47395;42.032;-8.634;2022-12-10T02:44:07;307.73;;;287.02;;
61527;SDS011;47395;42.032;-8.634;2022-12-10T02:46:11;323.05;;;301.08;;
61527;SDS011;47395;42.032;-8.634;2022-12-10T02:48:12;307.52;;;286.85;;
61527;SDS011;47395;42.032;-8.634;2022-12-10T02:50:16;312.27;;;291.20;;
61527;SDS011;47395;42.032;-8.634;2022-12-10T02:52:23;276.63;;;258.45;;
61527;SDS011;47395;42.032;-8.634;2022-12-10T02:54:43;274.92;;;256.20;;
61527;SDS011;47395;42.032;-8.634;2022-12-10T02:56:51;257.25;;;239.68;;
61527;SDS011;47395;42.032;-8.634;2022-12-10T02:59:13;268.25;;;250.80;;
61527;SDS011;47395;42.032;-8.634;2022-12-10T03:01:42;244.57;;;228.25;;
61527;SDS011;47395;42.032;-8.634;2022-12-10T03:04:21;232.00;;;216.88;;
61527;SDS011;47395;42.032;-8.634;2022-12-10T03:06:36;270.50;;;251.80;;
61527;SDS011;47395;42.032;-8.634;2022-12-10T03:08:51;307.08;;;286.55;;
61527;SDS011;47395;42.032;-8.634;2022-12-10T03:11:10;258.98;;;241.00;;
61527;SDS011;47395;42.032;-8.634;2022-12-10T03:13:16;278.85;;;260.55;;
61527;SDS011;47395;42.032;-8.634;2022-12-10T03:15:21;273.25;;;254.13;;
61527;SDS011;47395;42.032;-8.634;2022-12-10T03:17:27;251.07;;;234.85;;
61527;SDS011;47395;42.032;-8.634;2022-12-10T03:19:37;287.48;;;268.13;;
61527;SDS011;47395;42.032;-8.634;2022-12-10T03:21:44;252.60;;;235.75;;
61527;SDS011;47395;42.032;-8.634;2022-12-10T03:23:48;263.77;;;246.10;;
61527;SDS011;47395;42.032;-8.634;2022-12-10T03:25:52;285.15;;;266.33;;
61527;SDS011;47395;42.032;-8.634;2022-12-10T03:27:54;242.20;;;226.25;;
61527;SDS011;47395;42.032;-8.634;2022-12-10T03:29:57;261.80;;;244.07;;
61527;SDS011;47395;42.032;-8.634;2022-12-10T03:31:59;267.92;;;250.00;;
61527;SDS011;47395;42.032;-8.634;2022-12-10T03:34:02;281.92;;;263.17;;
61527;SDS011;47395;42.032;-8.634;2022-12-10T03:36:04;272.48;;;254.05;;
61527;SDS011;47395;42.032;-8.634;2022-12-10T03:38:07;252.00;;;235.25;;
61527;SDS011;47395;42.032;-8.634;2022-12-10T03:40:09;279.05;;;260.27;;
61527;SDS011;47395;42.032;-8.634;2022-12-10T03:42:12;254.32;;;237.70;;
61527;SDS011;47395;42.032;-8.634;2022-12-10T03:44:13;259.48;;;242.48;;
61527;SDS011;47395;42.032;-8.634;2022-12-10T03:46:42;249.30;;;232.98;;
61527;SDS011;47395;42.032;-8.634;2022-12-10T03:48:43;240.60;;;224.27;;
61527;SDS011;47395;42.032;-8.634;2022-12-10T03:50:44;236.77;;;220.65;;
61527;SDS011;47395;42.032;-8.634;2022-12-10T03:52:45;275.95;;;258.02;;
61527;SDS011;47395;42.032;-8.634;2022-12-10T03:54:46;255.43;;;239.00;;
61527;SDS011;47395;42.032;-8.634;2022-12-10T03:56:46;257.15;;;240.38;;
61527;SDS011;47395;42.032;-8.634;2022-12-10T03:58:47;255.60;;;238.70;;
61527;SDS011;47395;42.032;-8.634;2022-12-10T04:00:48;271.20;;;253.20;;
61527;SDS011;47395;42.032;-8.634;2022-12-10T04:02:50;273.05;;;254.88;;
61527;SDS011;47395;42.032;-8.634;2022-12-10T04:04:50;250.48;;;233.82;;
61527;SDS011;47395;42.032;-8.634;2022-12-10T04:06:51;277.35;;;258.92;;
61527;SDS011;47395;42.032;-8.634;2022-12-10T04:08:52;284.33;;;265.30;;
61527;SDS011;47395;42.032;-8.634;2022-12-10T04:10:53;286.23;;;267.20;;
61527;SDS011;47395;42.032;-8.634;2022-12-10T04:12:54;241.25;;;225.20;;
61527;SDS011;47395;42.032;-8.634;2022-12-10T04:15:13;232.52;;;217.25;;
61527;SDS011;47395;42.032;-8.634;2022-12-10T04:17:32;263.50;;;246.20;;
61527;SDS011;47395;42.032;-8.634;2022-12-10T04:19:34;251.13;;;234.45;;
61527;SDS011;47395;42.032;-8.634;2022-12-10T04:21:35;277.58;;;258.85;;
61527;SDS011;47395;42.032;-8.634;2022-12-10T04:26:20;206.63;;;193.48;;
61527;SDS011;47395;42.032;-8.634;2022-12-10T04:31:07;236.45;;;221.02;;
61527;SDS011;47395;42.032;-8.634;2022-12-10T04:33:08;246.32;;;230.15;;
61527;SDS011;47395;42.032;-8.634;2022-12-10T04:35:08;276.15;;;257.63;;
61527;SDS011;47395;42.032;-8.634;2022-12-10T04:37:25;296.60;;;276.80;;
61527;SDS011;47395;42.032;-8.634;2022-12-10T04:39:27;249.32;;;232.68;;
61527;SDS011;47395;42.032;-8.634;2022-12-10T04:41:28;262.67;;;245.35;;
61527;SDS011;47395;42.032;-8.634;2022-12-10T04:43:30;255.85;;;239.27;;
61527;SDS011;47395;42.032;-8.634;2022-12-10T04:45:43;266.25;;;248.73;;
61527;SDS011;47395;42.032;-8.634;2022-12-10T04:47:43;266.95;;;248.98;;
61527;SDS011;47395;42.032;-8.634;2022-12-10T04:49:44;275.92;;;257.83;;
61527;SDS011;47395;42.032;-8.634;2022-12-10T04:51:45;265.73;;;248.27;;
61527;SDS011;47395;42.032;-8.634;2022-12-10T04:53:46;257.17;;;239.52;;
61527;SDS011;47395;42.032;-8.634;2022-12-10T04:55:47;256.98;;;239.82;;
61527;SDS011;47395;42.032;-8.634;2022-12-10T04:57:47;288.00;;;268.88;;
61527;SDS011;47395;42.032;-8.634;2022-12-10T04:59:48;277.90;;;259.63;;
61527;SDS011;47395;42.032;-8.634;2022-12-10T05:04:00;248.93;;;232.40;;
61527;SDS011;47395;42.032;-8.634;2022-12-10T05:06:06;247.55;;;231.00;;
61527;SDS011;47395;42.032;-8.634;2022-12-10T05:08:09;253.95;;;237.40;;
61527;SDS011;47395;42.032;-8.634;2022-12-10T05:10:10;252.52;;;235.82;;
61527;SDS011;47395;42.032;-8.634;2022-12-10T05:12:10;228.20;;;212.65;;
61527;SDS011;47395;42.032;-8.634;2022-12-10T05:14:12;259.08;;;241.75;;
61527;SDS011;47395;42.032;-8.634;2022-12-10T05:16:16;252.32;;;235.48;;
61527;SDS011;47395;42.032;-8.634;2022-12-10T05:18:18;259.35;;;242.35;;
61527;SDS011;47395;42.032;-8.634;2022-12-10T05:20:19;243.63;;;227.68;;
61527;SDS011;47395;42.032;-8.634;2022-12-10T05:25:11;233.90;;;218.63;;
61527;SDS011;47395;42.032;-8.634;2022-12-10T05:27:12;243.77;;;227.48;;
61527;SDS011;47395;42.032;-8.634;2022-12-10T05:29:13;241.90;;;225.98;;
61527;SDS011;47395;42.032;-8.634;2022-12-10T05:31:15;227.70;;;212.75;;
61527;SDS011;47395;42.032;-8.634;2022-12-10T05:33:18;275.38;;;257.38;;
61527;SDS011;47395;42.032;-8.634;2022-12-10T05:35:19;233.90;;;218.70;;
61527;SDS011;47395;42.032;-8.634;2022-12-10T05:37:20;256.85;;;239.88;;
61527;SDS011;47395;42.032;-8.634;2022-12-10T05:39:20;272.25;;;254.00;;
61527;SDS011;47395;42.032;-8.634;2022-12-10T05:41:25;260.50;;;242.20;;
61527;SDS011;47395;42.032;-8.634;2022-12-10T05:43:28;258.08;;;240.77;;
61527;SDS011;47395;42.032;-8.634;2022-12-10T05:45:28;251.77;;;235.43;;
61527;SDS011;47395;42.032;-8.634;2022-12-10T05:47:32;268.08;;;250.05;;
61527;SDS011;47395;42.032;-8.634;2022-12-10T05:49:33;257.48;;;240.77;;
61527;SDS011;47395;42.032;-8.634;2022-12-10T05:51:35;248.57;;;232.57;;
61527;SDS011;47395;42.032;-8.634;2022-12-10T05:53:38;276.08;;;257.63;;
61527;SDS011;47395;42.032;-8.634;2022-12-10T05:55:39;259.05;;;241.55;;
61527;SDS011;47395;42.032;-8.634;2022-12-10T05:57:40;231.13;;;216.35;;
61527;SDS011;47395;42.032;-8.634;2022-12-10T05:59:41;246.93;;;230.18;;
61527;SDS011;47395;42.032;-8.634;2022-12-10T06:01:42;238.52;;;222.45;;
61527;SDS011;47395;42.032;-8.634;2022-12-10T06:03:43;262.02;;;244.88;;
61527;SDS011;47395;42.032;-8.634;2022-12-10T06:05:44;239.85;;;224.02;;
61527;SDS011;47395;42.032;-8.634;2022-12-10T06:07:45;246.57;;;230.43;;
61527;SDS011;47395;42.032;-8.634;2022-12-10T06:09:46;246.10;;;230.10;;
61527;SDS011;47395;42.032;-8.634;2022-12-10T06:11:46;283.15;;;264.58;;
61527;SDS011;47395;42.032;-8.634;2022-12-10T06:13:48;228.05;;;213.07;;
61527;SDS011;47395;42.032;-8.634;2022-12-10T06:15:49;249.07;;;232.90;;
61527;SDS011;47395;42.032;-8.634;2022-12-10T06:17:50;246.40;;;230.50;;
61527;SDS011;47395;42.032;-8.634;2022-12-10T06:19:51;265.70;;;248.65;;
61527;SDS011;47395;42.032;-8.634;2022-12-10T06:21:52;268.65;;;250.90;;
61527;SDS011;47395;42.032;-8.634;2022-12-10T06:23:53;253.43;;;236.95;;
61527;SDS011;47395;42.032;-8.634;2022-12-10T06:25:55;266.08;;;248.27;;
61527;SDS011;47395;42.032;-8.634;2022-12-10T06:27:57;228.05;;;212.73;;
61527;SDS011;47395;42.032;-8.634;2022-12-10T06:29:58;253.10;;;236.52;;
61527;SDS011;47395;42.032;-8.634;2022-12-10T06:31:58;250.15;;;233.85;;
61527;SDS011;47395;42.032;-8.634;2022-12-10T06:33:59;253.18;;;236.52;;
61527;SDS011;47395;42.032;-8.634;2022-12-10T06:36:02;271.27;;;253.57;;
61527;SDS011;47395;42.032;-8.634;2022-12-10T06:38:05;247.43;;;231.25;;
61527;SDS011;47395;42.032;-8.634;2022-12-10T06:40:06;238.85;;;222.93;;
61527;SDS011;47395;42.032;-8.634;2022-12-10T06:42:07;262.98;;;245.25;;
61527;SDS011;47395;42.032;-8.634;2022-12-10T06:44:08;272.95;;;254.70;;
61527;SDS011;47395;42.032;-8.634;2022-12-10T06:46:11;285.88;;;266.38;;
61527;SDS011;47395;42.032;-8.634;2022-12-10T06:48:14;236.13;;;220.23;;
61527;SDS011;47395;42.032;-8.634;2022-12-10T06:50:16;254.55;;;238.23;;
61527;SDS011;47395;42.032;-8.634;2022-12-10T06:52:17;253.50;;;236.77;;
61527;SDS011;47395;42.032;-8.634;2022-12-10T06:54:18;266.88;;;249.43;;
61527;SDS011;47395;42.032;-8.634;2022-12-10T06:56:19;262.48;;;244.82;;
61527;SDS011;47395;42.032;-8.634;2022-12-10T06:58:20;246.13;;;229.45;;
61527;SDS011;47395;42.032;-8.634;2022-12-10T07:00:21;261.95;;;244.23;;
61527;SDS011;47395;42.032;-8.634;2022-12-10T07:02:22;256.05;;;238.75;;
61527;SDS011;47395;42.032;-8.634;2022-12-10T07:04:23;236.25;;;220.50;;
61527;SDS011;47395;42.032;-8.634;2022-12-10T07:06:24;231.43;;;216.07;;
61527;SDS011;47395;42.032;-8.634;2022-12-10T07:08:26;266.10;;;248.35;;
61527;SDS011;47395;42.032;-8.634;2022-12-10T07:10:27;235.80;;;220.00;;
61527;SDS011;47395;42.032;-8.634;2022-12-10T07:12:28;264.23;;;246.85;;
61527;SDS011;47395;42.032;-8.634;2022-12-10T07:14:29;235.63;;;220.43;;
61527;SDS011;47395;42.032;-8.634;2022-12-10T07:16:30;260.67;;;242.85;;
61527;SDS011;47395;42.032;-8.634;2022-12-10T07:18:32;254.77;;;238.23;;
61527;SDS011;47395;42.032;-8.634;2022-12-10T07:20:33;250.43;;;233.73;;
61527;SDS011;47395;42.032;-8.634;2022-12-10T07:22:34;235.73;;;219.63;;
61527;SDS011;47395;42.032;-8.634;2022-12-10T07:24:35;266.17;;;248.07;;
61527;SDS011;47395;42.032;-8.634;2022-12-10T07:26:37;213.35;;;199.27;;
61527;SDS011;47395;42.032;-8.634;2022-12-10T07:28:40;241.73;;;225.90;;
61527;SDS011;47395;42.032;-8.634;2022-12-10T07:30:40;239.18;;;222.95;;
61527;SDS011;47395;42.032;-8.634;2022-12-10T07:32:41;233.18;;;217.80;;
61527;SDS011;47395;42.032;-8.634;2022-12-10T07:34:42;225.18;;;210.65;;
61527;SDS011;47395;42.032;-8.634;2022-12-10T07:36:43;233.75;;;217.85;;
61527;SDS011;47395;42.032;-8.634;2022-12-10T07:38:44;252.57;;;236.00;;
61527;SDS011;47395;42.032;-8.634;2022-12-10T07:40:46;236.13;;;220.10;;
61527;SDS011;47395;42.032;-8.634;2022-12-10T07:42:47;243.45;;;227.50;;
61527;SDS011;47395;42.032;-8.634;2022-12-10T07:44:48;233.02;;;217.48;;
61527;SDS011;47395;42.032;-8.634;2022-12-10T07:46:49;239.95;;;224.82;;
61527;SDS011;47395;42.032;-8.634;2022-12-10T07:48:51;238.60;;;223.43;;
61527;SDS011;47395;42.032;-8.634;2022-12-10T07:50:55;244.43;;;228.38;;
61527;SDS011;47395;42.032;-8.634;2022-12-10T07:52:57;234.45;;;219.18;;
61527;SDS011;47395;42.032;-8.634;2022-12-10T07:54:58;216.05;;;201.93;;
61527;SDS011;47395;42.032;-8.634;2022-12-10T07:57:01;241.77;;;225.82;;
61527;SDS011;47395;42.032;-8.634;2022-12-10T07:59:02;217.02;;;203.25;;
61527;SDS011;47395;42.032;-8.634;2022-12-10T08:01:06;236.45;;;221.15;;
61527;SDS011;47395;42.032;-8.634;2022-12-10T08:03:08;218.93;;;204.93;;
61527;SDS011;47395;42.032;-8.634;2022-12-10T08:05:10;238.73;;;223.18;;
61527;SDS011;47395;42.032;-8.634;2022-12-10T08:07:11;216.52;;;202.05;;
61527;SDS011;47395;42.032;-8.634;2022-12-10T08:09:12;220.05;;;205.85;;
61527;SDS011;47395;42.032;-8.634;2022-12-10T08:11:13;264.90;;;247.05;;
61527;SDS011;47395;42.032;-8.634;2022-12-10T08:13:16;248.80;;;232.07;;
61527;SDS011;47395;42.032;-8.634;2022-12-10T08:15:17;233.27;;;218.15;;
61527;SDS011;47395;42.032;-8.634;2022-12-10T08:17:18;244.90;;;228.20;;
61527;SDS011;47395;42.032;-8.634;2022-12-10T08:19:20;255.45;;;238.85;;
61527;SDS011;47395;42.032;-8.634;2022-12-10T08:21:22;277.40;;;259.20;;
61527;SDS011;47395;42.032;-8.634;2022-12-10T08:23:24;267.08;;;249.32;;
61527;SDS011;47395;42.032;-8.634;2022-12-10T08:25:25;239.57;;;223.77;;
61527;SDS011;47395;42.032;-8.634;2022-12-10T08:27:26;250.25;;;233.93;;
61527;SDS011;47395;42.032;-8.634;2022-12-10T08:29:29;250.52;;;234.27;;
61527;SDS011;47395;42.032;-8.634;2022-12-10T08:31:30;245.45;;;229.60;;
61527;SDS011;47395;42.032;-8.634;2022-12-10T08:33:33;267.00;;;249.32;;
61527;SDS011;47395;42.032;-8.634;2022-12-10T08:35:37;288.48;;;269.05;;
61527;SDS011;47395;42.032;-8.634;2022-12-10T08:37:40;280.00;;;261.95;;
61527;SDS011;47395;42.032;-8.634;2022-12-10T08:39:44;270.25;;;252.77;;
61527;SDS011;47395;42.032;-8.634;2022-12-10T08:41:45;276.55;;;258.50;;
61527;SDS011;47395;42.032;-8.634;2022-12-10T08:43:46;258.10;;;240.98;;
61527;SDS011;47395;42.032;-8.634;2022-12-10T08:45:49;274.80;;;256.13;;
61527;SDS011;47395;42.032;-8.634;2022-12-10T08:47:51;271.83;;;253.35;;
61527;SDS011;47395;42.032;-8.634;2022-12-10T08:49:52;295.33;;;276.38;;
61527;SDS011;47395;42.032;-8.634;2022-12-10T08:51:54;255.90;;;239.35;;
61527;SDS011;47395;42.032;-8.634;2022-12-10T08:53:55;255.63;;;238.82;;
61527;SDS011;47395;42.032;-8.634;2022-12-10T08:55:56;277.95;;;259.45;;
61527;SDS011;47395;42.032;-8.634;2022-12-10T08:57:57;282.92;;;264.25;;
61527;SDS011;47395;42.032;-8.634;2022-12-10T08:59:58;287.83;;;268.60;;
61527;SDS011;47395;42.032;-8.634;2022-12-10T09:01:59;274.92;;;256.95;;
61527;SDS011;47395;42.032;-8.634;2022-12-10T09:04:00;294.08;;;273.90;;
61527;SDS011;47395;42.032;-8.634;2022-12-10T09:06:03;292.38;;;272.98;;
61527;SDS011;47395;42.032;-8.634;2022-12-10T09:08:05;293.17;;;273.25;;
61527;SDS011;47395;42.032;-8.634;2022-12-10T09:10:06;275.92;;;257.27;;
61527;SDS011;47395;42.032;-8.634;2022-12-10T09:12:10;290.95;;;271.25;;
61527;SDS011;47395;42.032;-8.634;2022-12-10T09:14:11;304.55;;;283.70;;
61527;SDS011;47395;42.032;-8.634;2022-12-10T09:16:12;283.95;;;265.13;;
61527;SDS011;47395;42.032;-8.634;2022-12-10T09:18:13;309.50;;;288.42;;
61527;SDS011;47395;42.032;-8.634;2022-12-10T09:20:14;308.23;;;286.80;;
61527;SDS011;47395;42.032;-8.634;2022-12-10T09:22:14;334.10;;;310.85;;
61527;SDS011;47395;42.032;-8.634;2022-12-10T09:24:15;351.95;;;327.02;;
61527;SDS011;47395;42.032;-8.634;2022-12-10T09:26:17;382.95;;;355.23;;
61527;SDS011;47395;42.032;-8.634;2022-12-10T09:28:18;374.67;;;348.15;;
61527;SDS011;47395;42.032;-8.634;2022-12-10T09:30:19;429.52;;;398.20;;
61527;SDS011;47395;42.032;-8.634;2022-12-10T09:32:20;436.10;;;403.08;;
61527;SDS011;47395;42.032;-8.634;2022-12-10T09:34:21;472.63;;;437.08;;
61527;SDS011;47395;42.032;-8.634;2022-12-10T09:36:22;478.30;;;441.92;;
61527;SDS011;47395;42.032;-8.634;2022-12-10T09:38:23;496.42;;;459.50;;
61527;SDS011;47395;42.032;-8.634;2022-12-10T09:40:46;502.55;;;465.13;;
61527;SDS011;47395;42.032;-8.634;2022-12-10T09:45:56;453.67;;;419.63;;
61527;SDS011;47395;42.032;-8.634;2022-12-10T09:48:19;457.92;;;424.17;;
61527;SDS011;47395;42.032;-8.634;2022-12-10T09:50:50;475.13;;;439.17;;
61527;SDS011;47395;42.032;-8.634;2022-12-10T09:52:59;502.17;;;464.95;;
61527;SDS011;47395;42.032;-8.634;2022-12-10T09:55:12;485.13;;;448.63;;
61527;SDS011;47395;42.032;-8.634;2022-12-10T09:57:19;443.90;;;411.08;;
61527;SDS011;47395;42.032;-8.634;2022-12-10T09:59:42;462.90;;;428.00;;
61527;SDS011;47395;42.032;-8.634;2022-12-10T10:01:47;451.08;;;417.70;;
61527;SDS011;47395;42.032;-8.634;2022-12-10T10:03:59;451.48;;;417.85;;
61527;SDS011;47395;42.032;-8.634;2022-12-10T10:06:00;475.08;;;439.33;;
61527;SDS011;47395;42.032;-8.634;2022-12-10T10:08:05;479.63;;;442.80;;
61527;SDS011;47395;42.032;-8.634;2022-12-10T10:10:23;474.60;;;438.10;;
61527;SDS011;47395;42.032;-8.634;2022-12-10T10:12:32;484.35;;;446.73;;
61527;SDS011;47395;42.032;-8.634;2022-12-10T10:14:34;493.38;;;455.48;;
61527;SDS011;47395;42.032;-8.634;2022-12-10T10:16:59;528.00;;;487.95;;
61527;SDS011;47395;42.032;-8.634;2022-12-10T10:19:11;500.73;;;461.77;;
61527;SDS011;47395;42.032;-8.634;2022-12-10T10:21:48;545.75;;;503.95;;
61527;SDS011;47395;42.032;-8.634;2022-12-10T10:23:44;547.35;;;505.50;;
61527;SDS011;47395;42.032;-8.634;2022-12-10T10:25:46;531.60;;;490.58;;
61527;SDS011;47395;42.032;-8.634;2022-12-10T10:27:47;563.38;;;520.00;;
61527;SDS011;47395;42.032;-8.634;2022-12-10T10:29:48;576.75;;;532.55;;
61527;SDS011;47395;42.032;-8.634;2022-12-10T10:32:14;572.72;;;529.10;;
61527;SDS011;47395;42.032;-8.634;2022-12-10T10:34:22;580.47;;;536.22;;
61527;SDS011;47395;42.032;-8.634;2022-12-10T10:36:24;582.30;;;537.65;;
61527;SDS011;47395;42.032;-8.634;2022-12-10T10:38:29;598.58;;;553.03;;
61527;SDS011;47395;42.032;-8.634;2022-12-10T10:40:33;596.95;;;550.97;;
61527;SDS011;47395;42.032;-8.634;2022-12-10T10:42:41;652.90;;;603.57;;
61527;SDS011;47395;42.032;-8.634;2022-12-10T10:44:45;601.40;;;556.15;;
61527;SDS011;47395;42.032;-8.634;2022-12-10T10:46:47;621.03;;;574.10;;
61527;SDS011;47395;42.032;-8.634;2022-12-10T10:48:50;616.70;;;569.30;;
61527;SDS011;47395;42.032;-8.634;2022-12-10T10:50:52;612.35;;;565.15;;
61527;SDS011;47395;42.032;-8.634;2022-12-10T10:53:24;608.97;;;562.97;;
61527;SDS011;47395;42.032;-8.634;2022-12-10T10:55:33;605.67;;;559.53;;
61527;SDS011;47395;42.032;-8.634;2022-12-10T10:57:36;612.13;;;565.83;;
61527;SDS011;47395;42.032;-8.634;2022-12-10T10:59:37;619.15;;;572.08;;
61527;SDS011;47395;42.032;-8.634;2022-12-10T11:01:49;611.80;;;564.58;;
61527;SDS011;47395;42.032;-8.634;2022-12-10T11:03:55;631.13;;;583.05;;
61527;SDS011;47395;42.032;-8.634;2022-12-10T11:05:59;619.92;;;573.40;;
61527;SDS011;47395;42.032;-8.634;2022-12-10T11:08:05;617.63;;;570.63;;
61527;SDS011;47395;42.032;-8.634;2022-12-10T11:10:19;635.90;;;586.88;;
61527;SDS011;47395;42.032;-8.634;2022-12-10T11:17:35;593.58;;;547.95;;
61527;SDS011;47395;42.032;-8.634;2022-12-10T11:20:22;598.10;;;552.65;;
61527;SDS011;47395;42.032;-8.634;2022-12-10T11:22:34;634.63;;;586.58;;
61527;SDS011;47395;42.032;-8.634;2022-12-10T11:24:34;608.42;;;562.72;;
61527;SDS011;47395;42.032;-8.634;2022-12-10T11:34:37;644.67;;;595.00;;
61527;SDS011;47395;42.032;-8.634;2022-12-10T11:37:22;626.40;;;578.60;;
61527;SDS011;47395;42.032;-8.634;2022-12-10T11:39:53;623.78;;;576.03;;
61527;SDS011;47395;42.032;-8.634;2022-12-10T11:42:31;620.22;;;572.60;;
61527;SDS011;47395;42.032;-8.634;2022-12-10T11:50:26;623.08;;;575.53;;
61527;SDS011;47395;42.032;-8.634;2022-12-10T11:52:43;600.70;;;554.20;;
61527;SDS011;47395;42.032;-8.634;2022-12-10T11:54:57;592.72;;;547.15;;
61527;SDS011;47395;42.032;-8.634;2022-12-10T12:00:21;562.63;;;518.78;;
61527;SDS011;47395;42.032;-8.634;2022-12-10T12:05:24;564.58;;;520.63;;
61527;SDS011;47395;42.032;-8.634;2022-12-10T12:12:23;554.67;;;511.70;;
61527;SDS011;47395;42.032;-8.634;2022-12-10T12:15:25;532.60;;;490.55;;
61527;SDS011;47395;42.032;-8.634;2022-12-10T12:17:34;530.92;;;489.73;;
61527;SDS011;47395;42.032;-8.634;2022-12-10T12:19:43;550.10;;;507.23;;
61527;SDS011;47395;42.032;-8.634;2022-12-10T12:21:49;564.40;;;520.63;;
61527;SDS011;47395;42.032;-8.634;2022-12-10T12:26:36;582.90;;;538.33;;
61527;SDS011;47395;42.032;-8.634;2022-12-10T12:28:51;585.25;;;540.60;;
61527;SDS011;47395;42.032;-8.634;2022-12-10T12:30:58;605.33;;;558.85;;
61527;SDS011;47395;42.032;-8.634;2022-12-10T12:35:49;581.63;;;537.63;;
61527;SDS011;47395;42.032;-8.634;2022-12-10T12:37:57;592.38;;;547.47;;
61527;SDS011;47395;42.032;-8.634;2022-12-10T12:40:15;583.58;;;539.65;;